sensor_id;sensor_type;location;lat;lon;timestamp;pressure;altitude;pressure_sealevel;temperature;humidity
7990;BME280;4040;42.848;23.034;2023-02-12T00:00:59;95911.34;;;-1.46;100.00
7990;BME280;4040;42.848;23.034;2023-02-12T00:07:17;95910.19;;;-1.40;100.00
7990;BME280;4040;42.848;23.034;2023-02-12T00:13:07;95895.88;;;-1.61;100.00
7990;BME280;4040;42.848;23.034;2023-02-12T00:18:58;95925.41;;;-1.37;100.00
7990;BME280;4040;42.848;23.034;2023-02-12T00:24:47;95922.88;;;-1.42;100.00
7990;BME280;4040;42.848;23.034;2023-02-12T00:30:36;95908.84;;;-1.51;100.00
7990;BME280;4040;42.848;23.034;2023-02-12T00:36:28;95907.25;;;-1.52;100.00
7990;BME280;4040;42.848;23.034;2023-02-12T00:42:18;95915.19;;;-1.52;100.00
7990;BME280;4040;42.848;23.034;2023-02-12T00:48:07;95899.88;;;-1.64;100.00
7990;BME280;4040;42.848;23.034;2023-02-12T00:53:57;95914.91;;;-1.51;100.00
7990;BME280;4040;42.848;23.034;2023-02-12T00:59:46;95908.88;;;-1.65;100.00
7990;BME280;4040;42.848;23.034;2023-02-12T01:05:36;95907.75;;;-1.86;100.00
7990;BME280;4040;42.848;23.034;2023-02-12T01:11:27;95884.31;;;-2.14;100.00
7990;BME280;4040;42.848;23.034;2023-02-12T01:17:15;95909.13;;;-2.15;100.00
7990;BME280;4040;42.848;23.034;2023-02-12T01:23:04;95905.25;;;-2.31;100.00
7990;BME280;4040;42.848;23.034;2023-02-12T01:28:59;95891.19;;;-2.40;100.00
7990;BME280;4040;42.848;23.034;2023-02-12T01:34:49;95882.09;;;-2.34;100.00
7990;BME280;4040;42.848;23.034;2023-02-12T01:40:37;95871.16;;;-2.41;100.00
7990;BME280;4040;42.848;23.034;2023-02-12T01:46:28;95879.56;;;-2.39;100.00
7990;BME280;4040;42.848;23.034;2023-02-12T01:52:20;95872.81;;;-2.58;100.00
7990;BME280;4040;42.848;23.034;2023-02-12T01:58:11;95877.00;;;-2.71;100.00
7990;BME280;4040;42.848;23.034;2023-02-12T02:04:05;95873.97;;;-2.78;100.00
7990;BME280;4040;42.848;23.034;2023-02-12T02:09:56;95867.72;;;-2.82;100.00
7990;BME280;4040;42.848;23.034;2023-02-12T02:15:48;95855.69;;;-2.88;100.00
7990;BME280;4040;42.848;23.034;2023-02-12T02:21:59;95854.63;;;-2.73;100.00
7990;BME280;4040;42.848;23.034;2023-02-12T02:28:00;95847.00;;;-2.21;100.00
7990;BME280;4040;42.848;23.034;2023-02-12T02:33:55;95844.25;;;-2.16;100.00
7990;BME280;4040;42.848;23.034;2023-02-12T02:39:49;95838.41;;;-2.27;100.00
7990;BME280;4040;42.848;23.034;2023-02-12T02:45:42;95846.41;;;-2.18;100.00
7990;BME280;4040;42.848;23.034;2023-02-12T02:51:40;95848.91;;;-2.00;100.00
7990;BME280;4040;42.848;23.034;2023-02-12T02:57:35;95848.41;;;-1.88;100.00
7990;BME280;4040;42.848;23.034;2023-02-12T03:03:29;95851.78;;;-1.74;100.00
7990;BME280;4040;42.848;23.034;2023-02-12T03:09:24;95841.69;;;-1.72;100.00
7990;BME280;4040;42.848;23.034;2023-02-12T03:15:19;95840.41;;;-1.61;100.00
7990;BME280;4040;42.848;23.034;2023-02-12T03:21:16;95840.75;;;-1.54;100.00
7990;BME280;4040;42.848;23.034;2023-02-12T03:27:10;95829.84;;;-1.39;100.00
7990;BME280;4040;42.848;23.034;2023-02-12T03:33:08;95833.44;;;-1.05;100.00
7990;BME280;4040;42.848;23.034;2023-02-12T03:39:07;95820.53;;;-1.06;100.00
7990;BME280;4040;42.848;23.034;2023-02-12T03:45:03;95819.94;;;-1.03;100.00
7990;BME280;4040;42.848;23.034;2023-02-12T03:50:57;95818.44;;;-1.18;100.00
7990;BME280;4040;42.848;23.034;2023-02-12T03:56:51;95815.81;;;-1.18;100.00
7990;BME280;4040;42.848;23.034;2023-02-12T04:02:44;95815.88;;;-1.09;100.00
7990;BME280;4040;42.848;23.034;2023-02-12T04:12:39;95755.94;;;-1.22;100.00
7990;BME280;4040;42.848;23.034;2023-02-12T04:18:38;95835.19;;;-0.70;100.00
7990;BME280;4040;42.848;23.034;2023-02-12T04:24:35;95847.41;;;-0.82;100.00
7990;BME280;4040;42.848;23.034;2023-02-12T04:30:34;95846.19;;;-0.76;100.00
7990;BME280;4040;42.848;23.034;2023-02-12T04:36:28;95857.72;;;-0.72;100.00
7990;BME280;4040;42.848;23.034;2023-02-12T04:42:19;95889.41;;;-0.50;100.00
7990;BME280;4040;42.848;23.034;2023-02-12T04:48:08;95886.63;;;-0.45;100.00
7990;BME280;4040;42.848;23.034;2023-02-12T04:54:00;95882.44;;;-0.46;100.00
7990;BME280;4040;42.848;23.034;2023-02-12T04:59:49;95894.84;;;-0.55;100.00
7990;BME280;4040;42.848;23.034;2023-02-12T05:05:38;95887.91;;;-0.34;100.00
7990;BME280;4040;42.848;23.034;2023-02-12T05:15:50;95896.88;;;-0.13;100.00
7990;BME280;4040;42.848;23.034;2023-02-12T05:21:39;95894.25;;;0.03;100.00
7990;BME280;4040;42.848;23.034;2023-02-12T05:27:27;95899.31;;;-0.25;100.00
7990;BME280;4040;42.848;23.034;2023-02-12T05:33:18;95902.38;;;-0.40;100.00
7990;BME280;4040;42.848;23.034;2023-02-12T05:39:07;95871.22;;;-0.74;100.00
7990;BME280;4040;42.848;23.034;2023-02-12T05:44:56;95895.47;;;-0.80;100.00
7990;BME280;4040;42.848;23.034;2023-02-12T05:50:46;95893.44;;;-0.83;100.00
7990;BME280;4040;42.848;23.034;2023-02-12T05:56:36;95911.63;;;-0.60;100.00
7990;BME280;4040;42.848;23.034;2023-02-12T06:02:25;95893.19;;;-0.73;100.00
7990;BME280;4040;42.848;23.034;2023-02-12T06:08:16;95902.28;;;-0.57;100.00
7990;BME280;4040;42.848;23.034;2023-02-12T06:18:27;95912.34;;;-0.37;100.00
7990;BME280;4040;42.848;23.034;2023-02-12T06:24:17;95915.31;;;-0.30;100.00
7990;BME280;4040;42.848;23.034;2023-02-12T06:30:07;95911.47;;;-0.24;100.00
7990;BME280;4040;42.848;23.034;2023-02-12T06:35:56;95918.03;;;-0.13;100.00
7990;BME280;4040;42.848;23.034;2023-02-12T06:41:47;95910.63;;;0.05;100.00
7990;BME280;4040;42.848;23.034;2023-02-12T06:47:35;95913.28;;;0.14;100.00
7990;BME280;4040;42.848;23.034;2023-02-12T06:53:24;95903.50;;;0.31;100.00
7990;BME280;4040;42.848;23.034;2023-02-12T06:59:15;95899.16;;;0.52;100.00
7990;BME280;4040;42.848;23.034;2023-02-12T07:05:05;95902.13;;;0.59;100.00
7990;BME280;4040;42.848;23.034;2023-02-12T07:10:54;95882.94;;;0.62;100.00
7990;BME280;4040;42.848;23.034;2023-02-12T07:21:07;95913.16;;;1.12;100.00
7990;BME280;4040;42.848;23.034;2023-02-12T07:26:57;95905.03;;;1.17;100.00
7990;BME280;4040;42.848;23.034;2023-02-12T07:32:46;95921.69;;;1.35;100.00
7990;BME280;4040;42.848;23.034;2023-02-12T07:38:36;95932.91;;;1.40;100.00
7990;BME280;4040;42.848;23.034;2023-02-12T07:44:26;95937.50;;;1.31;100.00
7990;BME280;4040;42.848;23.034;2023-02-12T07:50:15;95933.75;;;1.15;100.00
7990;BME280;4040;42.848;23.034;2023-02-12T07:56:07;95932.84;;;0.94;100.00
7990;BME280;4040;42.848;23.034;2023-02-12T08:01:57;95921.59;;;0.97;100.00
7990;BME280;4040;42.848;23.034;2023-02-12T08:07:47;95945.97;;;0.99;100.00
7990;BME280;4040;42.848;23.034;2023-02-12T08:13:37;95940.50;;;0.96;100.00
7990;BME280;4040;42.848;23.034;2023-02-12T08:23:48;95959.03;;;1.04;100.00
7990;BME280;4040;42.848;23.034;2023-02-12T08:29:39;95963.72;;;1.24;100.00
7990;BME280;4040;42.848;23.034;2023-02-12T08:35:28;95955.63;;;1.12;100.00
7990;BME280;4040;42.848;23.034;2023-02-12T08:41:19;95985.72;;;1.33;100.00
7990;BME280;4040;42.848;23.034;2023-02-12T08:47:10;95994.72;;;1.49;100.00
7990;BME280;4040;42.848;23.034;2023-02-12T08:52:58;95988.81;;;1.52;100.00
7990;BME280;4040;42.848;23.034;2023-02-12T08:58:48;95992.56;;;1.43;100.00
7990;BME280;4040;42.848;23.034;2023-02-12T09:04:38;96008.41;;;1.77;100.00
7990;BME280;4040;42.848;23.034;2023-02-12T09:10:27;96015.41;;;1.98;100.00
7990;BME280;4040;42.848;23.034;2023-02-12T09:16:16;96021.34;;;1.95;100.00
7990;BME280;4040;42.848;23.034;2023-02-12T09:26:29;96016.56;;;2.26;100.00
7990;BME280;4040;42.848;23.034;2023-02-12T09:32:18;96013.88;;;2.63;100.00
7990;BME280;4040;42.848;23.034;2023-02-12T09:38:07;96008.09;;;3.11;100.00
7990;BME280;4040;42.848;23.034;2023-02-12T09:44:03;96021.09;;;2.83;100.00
7990;BME280;4040;42.848;23.034;2023-02-12T09:50:32;96031.63;;;2.80;100.00
7990;BME280;4040;42.848;23.034;2023-02-12T09:56:25;95956.78;;;2.32;100.00
7990;BME280;4040;42.848;23.034;2023-02-12T10:02:18;96034.78;;;2.73;100.00
7990;BME280;4040;42.848;23.034;2023-02-12T10:08:19;96014.63;;;2.64;100.00
7990;BME280;4040;42.848;23.034;2023-02-12T10:14:27;96030.06;;;2.79;100.00
7990;BME280;4040;42.848;23.034;2023-02-12T10:20:39;96015.34;;;3.02;100.00
7990;BME280;4040;42.848;23.034;2023-02-12T10:26:37;96006.56;;;3.42;100.00
7990;BME280;4040;42.848;23.034;2023-02-12T10:32:32;96016.69;;;3.81;100.00
7990;BME280;4040;42.848;23.034;2023-02-12T10:38:26;96022.47;;;3.51;100.00
7990;BME280;4040;42.848;23.034;2023-02-12T10:44:17;96020.78;;;3.79;100.00
7990;BME280;4040;42.848;23.034;2023-02-12T10:50:27;96023.28;;;3.96;100.00
7990;BME280;4040;42.848;23.034;2023-02-12T10:56:23;96020.09;;;4.02;100.00
7990;BME280;4040;42.848;23.034;2023-02-12T11:02:22;96022.22;;;4.21;100.00
7990;BME280;4040;42.848;23.034;2023-02-12T11:08:28;96024.47;;;4.31;100.00
7990;BME280;4040;42.848;23.034;2023-02-12T11:14:20;96028.19;;;3.94;100.00
7990;BME280;4040;42.848;23.034;2023-02-12T11:20:22;96044.09;;;4.14;100.00
7990;BME280;4040;42.848;23.034;2023-02-12T11:26:25;96034.69;;;4.53;100.00
7990;BME280;4040;42.848;23.034;2023-02-12T11:32:17;96031.59;;;4.39;100.00
7990;BME280;4040;42.848;23.034;2023-02-12T11:38:19;96034.34;;;4.90;100.00
7990;BME280;4040;42.848;23.034;2023-02-12T11:44:11;96007.81;;;4.70;100.00
7990;BME280;4040;42.848;23.034;2023-02-12T11:50:06;96030.53;;;5.27;100.00
7990;BME280;4040;42.848;23.034;2023-02-12T11:55:59;96014.88;;;5.53;97.71
7990;BME280;4040;42.848;23.034;2023-02-12T12:01:50;95991.41;;;5.07;97.40
7990;BME280;4040;42.848;23.034;2023-02-12T12:07:45;96026.38;;;5.41;98.39
7990;BME280;4040;42.848;23.034;2023-02-12T12:13:42;96041.00;;;5.20;99.88
7990;BME280;4040;42.848;23.034;2023-02-12T12:19:37;96045.41;;;4.65;100.00
7990;BME280;4040;42.848;23.034;2023-02-12T12:25:45;96039.16;;;4.37;100.00
7990;BME280;4040;42.848;23.034;2023-02-12T12:31:38;96043.78;;;4.28;100.00
7990;BME280;4040;42.848;23.034;2023-02-12T12:37:35;96043.88;;;4.07;100.00
7990;BME280;4040;42.848;23.034;2023-02-12T12:43:37;96067.53;;;4.09;100.00
7990;BME280;4040;42.848;23.034;2023-02-12T12:49:47;96054.03;;;4.38;100.00
7990;BME280;4040;42.848;23.034;2023-02-12T12:55:53;96059.53;;;4.21;100.00
7990;BME280;4040;42.848;23.034;2023-02-12T13:02:02;96060.22;;;4.30;100.00
7990;BME280;4040;42.848;23.034;2023-02-12T13:08:00;96036.69;;;4.91;100.00
7990;BME280;4040;42.848;23.034;2023-02-12T13:13:56;96067.13;;;5.38;100.00
7990;BME280;4040;42.848;23.034;2023-02-12T13:19:59;96075.59;;;5.80;96.58
7990;BME280;4040;42.848;23.034;2023-02-12T13:25:58;96074.94;;;5.98;95.77
7990;BME280;4040;42.848;23.034;2023-02-12T13:31:53;96085.09;;;5.53;95.70
7990;BME280;4040;42.848;23.034;2023-02-12T13:37:46;96093.19;;;5.05;100.00
7990;BME280;4040;42.848;23.034;2023-02-12T13:43:44;96071.63;;;5.10;100.00
7990;BME280;4040;42.848;23.034;2023-02-12T13:49:43;96101.53;;;5.16;100.00
7990;BME280;4040;42.848;23.034;2023-02-12T13:55:38;96106.91;;;4.92;100.00
7990;BME280;4040;42.848;23.034;2023-02-12T14:01:38;96107.41;;;4.62;100.00
7990;BME280;4040;42.848;23.034;2023-02-12T14:07:41;96114.94;;;4.36;100.00
7990;BME280;4040;42.848;23.034;2023-02-12T14:13:33;96096.25;;;4.24;100.00
7990;BME280;4040;42.848;23.034;2023-02-12T14:19:38;96110.88;;;4.18;100.00
7990;BME280;4040;42.848;23.034;2023-02-12T14:30:03;96140.47;;;4.25;100.00
7990;BME280;4040;42.848;23.034;2023-02-12T14:36:17;96143.88;;;4.25;100.00
7990;BME280;4040;42.848;23.034;2023-02-12T14:42:42;96161.44;;;3.94;100.00
7990;BME280;4040;42.848;23.034;2023-02-12T14:48:44;96167.59;;;3.86;100.00
7990;BME280;4040;42.848;23.034;2023-02-12T14:54:41;96157.66;;;3.74;100.00
7990;BME280;4040;42.848;23.034;2023-02-12T15:00:34;96174.81;;;3.65;100.00
7990;BME280;4040;42.848;23.034;2023-02-12T15:06:35;96175.84;;;3.52;100.00
7990;BME280;4040;42.848;23.034;2023-02-12T15:12:29;96184.66;;;3.44;100.00
7990;BME280;4040;42.848;23.034;2023-02-12T15:18:23;96199.25;;;3.38;100.00
7990;BME280;4040;42.848;23.034;2023-02-12T15:24:22;96220.38;;;3.43;100.00
7990;BME280;4040;42.848;23.034;2023-02-12T15:30:14;96221.75;;;3.49;100.00
7990;BME280;4040;42.848;23.034;2023-02-12T15:36:05;96234.31;;;3.48;100.00
7990;BME280;4040;42.848;23.034;2023-02-12T15:41:56;96239.19;;;3.38;100.00
7990;BME280;4040;42.848;23.034;2023-02-12T15:47:55;96233.66;;;3.14;100.00
7990;BME280;4040;42.848;23.034;2023-02-12T15:53:44;96254.75;;;2.90;100.00
7990;BME280;4040;42.848;23.034;2023-02-12T15:59:35;96262.06;;;2.93;100.00
7990;BME280;4040;42.848;23.034;2023-02-12T16:05:24;96268.72;;;2.70;100.00
7990;BME280;4040;42.848;23.034;2023-02-12T16:11:18;96274.81;;;2.62;100.00
7990;BME280;4040;42.848;23.034;2023-02-12T16:17:21;96280.31;;;2.48;100.00
7990;BME280;4040;42.848;23.034;2023-02-12T16:23:14;96288.63;;;2.47;100.00
7990;BME280;4040;42.848;23.034;2023-02-12T16:29:04;96294.84;;;2.34;100.00
7990;BME280;4040;42.848;23.034;2023-02-12T16:35:01;96300.50;;;2.33;100.00
7990;BME280;4040;42.848;23.034;2023-02-12T16:41:15;96310.50;;;2.44;100.00
7990;BME280;4040;42.848;23.034;2023-02-12T16:47:18;96319.91;;;2.42;100.00
7990;BME280;4040;42.848;23.034;2023-02-12T16:53:27;96324.25;;;2.29;100.00
7990;BME280;4040;42.848;23.034;2023-02-12T16:59:19;96347.09;;;2.30;100.00
7990;BME280;4040;42.848;23.034;2023-02-12T17:05:09;96356.94;;;2.30;100.00
7990;BME280;4040;42.848;23.034;2023-02-12T17:11:00;96367.59;;;2.30;100.00
7990;BME280;4040;42.848;23.034;2023-02-12T17:16:49;96370.53;;;2.28;100.00
7990;BME280;4040;42.848;23.034;2023-02-12T17:22:38;96382.13;;;2.32;100.00
7990;BME280;4040;42.848;23.034;2023-02-12T17:32:51;96392.28;;;2.38;100.00
7990;BME280;4040;42.848;23.034;2023-02-12T17:38:40;96375.06;;;2.11;100.00
7990;BME280;4040;42.848;23.034;2023-02-12T17:44:29;96414.44;;;2.09;100.00
7990;BME280;4040;42.848;23.034;2023-02-12T17:50:20;96410.81;;;1.96;100.00
7990;BME280;4040;42.848;23.034;2023-02-12T17:56:09;96386.25;;;1.91;100.00
7990;BME280;4040;42.848;23.034;2023-02-12T18:01:59;96423.94;;;2.01;100.00
7990;BME280;4040;42.848;23.034;2023-02-12T18:07:49;96423.94;;;2.01;100.00
7990;BME280;4040;42.848;23.034;2023-02-12T18:13:38;96419.88;;;1.95;100.00
7990;BME280;4040;42.848;23.034;2023-02-12T18:19:28;96405.03;;;1.94;100.00
7990;BME280;4040;42.848;23.034;2023-02-12T18:25:19;96426.19;;;1.77;100.00
7990;BME280;4040;42.848;23.034;2023-02-12T18:35:29;96430.06;;;1.71;100.00
7990;BME280;4040;42.848;23.034;2023-02-12T18:41:23;96452.53;;;1.65;100.00
7990;BME280;4040;42.848;23.034;2023-02-12T18:47:13;96455.44;;;1.55;100.00
7990;BME280;4040;42.848;23.034;2023-02-12T18:53:01;96457.13;;;1.51;100.00
7990;BME280;4040;42.848;23.034;2023-02-12T18:58:55;96463.41;;;1.55;100.00
7990;BME280;4040;42.848;23.034;2023-02-12T19:04:44;96461.25;;;1.57;100.00
7990;BME280;4040;42.848;23.034;2023-02-12T19:10:33;96478.81;;;1.45;100.00
7990;BME280;4040;42.848;23.034;2023-02-12T19:16:26;96482.97;;;1.37;100.00
7990;BME280;4040;42.848;23.034;2023-02-12T19:22:15;96483.22;;;1.27;100.00
7990;BME280;4040;42.848;23.034;2023-02-12T19:28:04;96482.50;;;1.13;100.00
7990;BME280;4040;42.848;23.034;2023-02-12T19:38:16;96489.94;;;0.54;100.00
7990;BME280;4040;42.848;23.034;2023-02-12T19:44:09;96500.13;;;0.60;100.00
7990;BME280;4040;42.848;23.034;2023-02-12T19:49:59;96493.69;;;0.12;100.00
7990;BME280;4040;42.848;23.034;2023-02-12T19:55:49;96517.81;;;0.24;100.00
7990;BME280;4040;42.848;23.034;2023-02-12T20:01:38;96520.16;;;0.12;100.00
7990;BME280;4040;42.848;23.034;2023-02-12T20:07:27;96529.75;;;-0.18;100.00
7990;BME280;4040;42.848;23.034;2023-02-12T20:13:18;96530.31;;;-0.21;100.00
7990;BME280;4040;42.848;23.034;2023-02-12T20:19:10;96530.81;;;-0.19;100.00
7990;BME280;4040;42.848;23.034;2023-02-12T20:24:59;96535.78;;;-0.31;100.00
7990;BME280;4040;42.848;23.034;2023-02-12T20:30:49;96539.41;;;-0.41;100.00
7990;BME280;4040;42.848;23.034;2023-02-12T20:41:01;96534.03;;;-0.36;100.00
7990;BME280;4040;42.848;23.034;2023-02-12T20:46:51;96539.69;;;-0.42;100.00
7990;BME280;4040;42.848;23.034;2023-02-12T20:52:43;96545.56;;;-0.45;100.00
7990;BME280;4040;42.848;23.034;2023-02-12T20:58:32;96563.00;;;-0.44;100.00
7990;BME280;4040;42.848;23.034;2023-02-12T21:04:22;96554.97;;;-0.39;100.00
7990;BME280;4040;42.848;23.034;2023-02-12T21:10:11;96553.38;;;-0.54;100.00
7990;BME280;4040;42.848;23.034;2023-02-12T21:16:06;96562.47;;;-0.78;100.00
7990;BME280;4040;42.848;23.034;2023-02-12T21:21:57;96563.53;;;-0.79;100.00
7990;BME280;4040;42.848;23.034;2023-02-12T21:27:46;96570.41;;;-0.78;100.00
7990;BME280;4040;42.848;23.034;2023-02-12T21:33:35;96577.47;;;-0.55;100.00
7990;BME280;4040;42.848;23.034;2023-02-12T21:43:49;96582.19;;;-0.52;100.00
7990;BME280;4040;42.848;23.034;2023-02-12T21:49:39;96602.38;;;-0.56;100.00
7990;BME280;4040;42.848;23.034;2023-02-12T21:55:28;96598.81;;;-0.65;100.00
7990;BME280;4040;42.848;23.034;2023-02-12T22:01:21;96601.88;;;-0.77;100.00
7990;BME280;4040;42.848;23.034;2023-02-12T22:07:10;96611.38;;;-0.94;100.00
7990;BME280;4040;42.848;23.034;2023-02-12T22:13:00;96608.59;;;-0.84;100.00
7990;BME280;4040;42.848;23.034;2023-02-12T22:18:51;96618.69;;;-0.86;100.00
7990;BME280;4040;42.848;23.034;2023-02-12T22:24:41;96614.38;;;-0.82;100.00
7990;BME280;4040;42.848;23.034;2023-02-12T22:30:30;96624.38;;;-0.98;100.00
7990;BME280;4040;42.848;23.034;2023-02-12T22:36:21;96611.28;;;-0.89;100.00
7990;BME280;4040;42.848;23.034;2023-02-12T22:46:33;96619.88;;;-0.60;100.00
7990;BME280;4040;42.848;23.034;2023-02-12T22:52:23;96623.81;;;-0.39;100.00
7990;BME280;4040;42.848;23.034;2023-02-12T22:58:12;96625.81;;;-0.31;100.00
7990;BME280;4040;42.848;23.034;2023-02-12T23:08:30;96629.19;;;-0.44;100.00
7990;BME280;4040;42.848;23.034;2023-02-12T23:14:19;96635.66;;;-0.18;100.00
7990;BME280;4040;42.848;23.034;2023-02-12T23:20:09;96642.19;;;0.02;100.00
7990;BME280;4040;42.848;23.034;2023-02-12T23:26:00;96644.28;;;0.19;100.00
7990;BME280;4040;42.848;23.034;2023-02-12T23:31:49;96641.22;;;-0.02;100.00
7990;BME280;4040;42.848;23.034;2023-02-12T23:37:38;96644.28;;;0.05;100.00
7990;BME280;4040;42.848;23.034;2023-02-12T23:43:29;96637.72;;;0.16;100.00
7990;BME280;4040;42.848;23.034;2023-02-12T23:49:18;96642.03;;;0.12;100.00
7990;BME280;4040;42.848;23.034;2023-02-12T23:55:07;96637.91;;;0.06;100.00
